首页
METAR-TAF:

METAR-TAF

机场 :

宗古爾達克, 土耳其

纬度: 41-27N, 经度: 031-48E, 海拔: 136米

当前天气观测

该预报发布于9小时和54分钟前的16:50 UTC
风速7节,风向西北
温度 26°C
湿度 84%
气压 1015 hPa
能见度10公里或以上
少量云层高于1500英尺
散云层高于10000英尺

METAR: LTAS 261650Z 32007KT 9999 FEW015 SCT100 26/23 Q1015

时间: 05:44 (02:44 UTC)

预报

该预报发布于1小时和4分钟前的01:40 UTC
预报有效从27日的 03点(UTC)到 27日的 12点(UTC)
风速2节,风向多变
能见度10公里或以上
散云层高于3000英尺
短暂存在
从 27日的 08点(UTC)到 27日的 12点(UTC)
风速12节,风向北转西北

TAF: LTAS 270140Z 2703/2712 VRB02KT 9999 SCT030 TEMPO 2708/2712 34012KT

超过4000个机场的气象观测和天气预报(METAR&TAF报告)。

可查询的气象台以黄色和红色小点在地图上表示。

将鼠标移到小点上方,可查看气象台名称。

然后点击查看天气观测和预报。

如需切换地图:点击带黑十字的绿色按钮放大地图;点击带横线的绿色按钮缩小地图;或者点击绿色箭头查看邻近地区的地图。


METAR-TAF: